createdAt,value
2022-08-27T00:00:46.208Z,1010.13
2022-08-27T00:01:46.249Z,1010.05
2022-08-27T00:02:46.198Z,1010.06
2022-08-27T00:03:46.280Z,1010.03
2022-08-27T00:04:46.204Z,1010.06
2022-08-27T00:05:46.148Z,1010.10
2022-08-27T00:06:46.390Z,1010.05
2022-08-27T00:07:46.149Z,1010.07
2022-08-27T00:08:46.135Z,1010.04
2022-08-27T00:09:46.131Z,1010.06
2022-08-27T00:10:46.086Z,1010.09
2022-08-27T00:11:46.080Z,1010.07
2022-08-27T00:12:46.064Z,1010.06
2022-08-27T00:13:46.070Z,1010.09
2022-08-27T00:14:46.036Z,1010.08
2022-08-27T00:15:46.040Z,1010.06
2022-08-27T00:16:46.048Z,1010.08
2022-08-27T00:17:46.040Z,1010.07
2022-08-27T00:18:47.839Z,1010.07
2022-08-27T00:19:46.001Z,1010.09
2022-08-27T00:20:45.992Z,1010.07
2022-08-27T00:21:45.956Z,1010.07
2022-08-27T00:22:45.949Z,1010.11
2022-08-27T00:23:45.971Z,1010.05
2022-08-27T00:24:48.811Z,1010.04
2022-08-27T00:25:45.928Z,1010.02
2022-08-27T00:26:45.913Z,1010.00
2022-08-27T00:27:45.946Z,1010.06
2022-08-27T00:28:45.885Z,1010.06
2022-08-27T00:29:45.891Z,1010.04
2022-08-27T00:30:45.888Z,1010.03
2022-08-27T00:31:45.923Z,1010.01
2022-08-27T00:32:46.845Z,1009.97
2022-08-27T00:33:45.857Z,1009.97
2022-08-27T00:34:45.829Z,1010.02
2022-08-27T00:35:45.802Z,1009.99
2022-08-27T00:36:45.809Z,1010.05
2022-08-27T00:37:45.816Z,1010.03
2022-08-27T00:38:45.769Z,1010.00
2022-08-27T00:39:45.812Z,1010.00
2022-08-27T00:40:45.755Z,1009.99
2022-08-27T00:41:45.744Z,1010.03
2022-08-27T00:42:45.743Z,1009.99
2022-08-27T00:43:45.726Z,1009.98
2022-08-27T00:44:45.728Z,1009.95
2022-08-27T00:45:45.758Z,1009.98
2022-08-27T00:46:45.692Z,1009.92
2022-08-27T00:47:45.689Z,1009.98
2022-08-27T00:48:45.672Z,1009.95
2022-08-27T00:49:45.696Z,1009.93
2022-08-27T00:50:45.646Z,1009.93
2022-08-27T00:51:45.629Z,1009.94
2022-08-27T00:52:45.625Z,1009.91
2022-08-27T00:53:45.600Z,1009.89
2022-08-27T00:54:45.625Z,1009.89
2022-08-27T00:55:45.578Z,1009.95
2022-08-27T00:56:51.626Z,1009.91
2022-08-27T00:57:46.568Z,1009.88
2022-08-27T00:58:45.555Z,1009.93
2022-08-27T00:59:45.550Z,1009.92
2022-08-27T01:00:45.584Z,1009.91
2022-08-27T01:01:45.535Z,1009.89
2022-08-27T01:02:45.498Z,1009.91
2022-08-27T01:03:45.494Z,1009.92
2022-08-27T01:04:45.497Z,1009.93
2022-08-27T01:05:45.489Z,1010.00
2022-08-27T01:06:45.492Z,1009.93
2022-08-27T01:07:45.440Z,1009.95
2022-08-27T01:08:45.435Z,1009.96
2022-08-27T01:09:45.435Z,1009.96
2022-08-27T01:10:45.414Z,1009.93
2022-08-27T01:11:45.431Z,1009.86
2022-08-27T01:12:53.270Z,1009.93
2022-08-27T01:13:59.376Z,1009.89
2022-08-27T01:14:47.253Z,1009.86
2022-08-27T01:15:45.347Z,1009.85
2022-08-27T01:16:45.428Z,1009.91
2022-08-27T01:17:45.364Z,1009.89
2022-08-27T01:18:45.331Z,1009.88
2022-08-27T01:19:45.314Z,1009.92
2022-08-27T01:20:45.313Z,1009.87
2022-08-27T01:21:45.309Z,1009.88
2022-08-27T01:22:45.307Z,1009.91
2022-08-27T01:23:45.272Z,1009.88
2022-08-27T01:24:45.260Z,1009.90
2022-08-27T01:25:45.255Z,1009.92
2022-08-27T01:26:45.262Z,1009.92
2022-08-27T01:27:45.214Z,1009.90
2022-08-27T01:28:45.245Z,1009.92
2022-08-27T01:29:45.195Z,1009.90
2022-08-27T01:30:45.183Z,1009.85
2022-08-27T01:31:45.286Z,1009.84
2022-08-27T01:32:45.186Z,1009.81
2022-08-27T01:33:45.184Z,1009.77
2022-08-27T01:34:45.175Z,1009.79
2022-08-27T01:35:45.143Z,1009.77
2022-08-27T01:36:45.119Z,1009.80
2022-08-27T01:37:45.101Z,1009.75
2022-08-27T01:38:45.122Z,1009.79
2022-08-27T01:39:45.101Z,1009.83
2022-08-27T01:40:45.078Z,1009.79
2022-08-27T01:41:45.074Z,1009.78
2022-08-27T01:42:45.049Z,1009.81
2022-08-27T01:43:45.040Z,1009.82
2022-08-27T01:44:45.054Z,1009.85
2022-08-27T01:45:45.035Z,1009.86
2022-08-27T01:46:45.061Z,1009.87
2022-08-27T01:47:45.007Z,1009.84
2022-08-27T01:48:44.992Z,1009.83
2022-08-27T01:49:44.989Z,1009.83
2022-08-27T01:50:44.994Z,1009.82
2022-08-27T01:51:44.947Z,1009.88
2022-08-27T01:52:44.940Z,1009.90
2022-08-27T01:53:44.944Z,1009.90
2022-08-27T01:54:44.930Z,1009.87
2022-08-27T01:55:47.710Z,1009.88
2022-08-27T01:56:44.925Z,1009.85
2022-08-27T01:57:44.886Z,1009.93
2022-08-27T01:58:44.873Z,1009.91
2022-08-27T01:59:44.910Z,1009.90
2022-08-27T02:00:44.889Z,1009.88
2022-08-27T02:01:44.912Z,1009.90
2022-08-27T02:02:44.835Z,1009.88
2022-08-27T02:03:44.808Z,1009.91
2022-08-27T02:04:44.817Z,1009.88
2022-08-27T02:05:45.241Z,1009.88
2022-08-27T02:06:44.782Z,1009.89
2022-08-27T02:07:44.777Z,1009.96
2022-08-27T02:08:44.781Z,1009.88
2022-08-27T02:09:44.755Z,1009.89
2022-08-27T02:10:44.750Z,1009.86
2022-08-27T02:11:45.152Z,1009.90
2022-08-27T02:12:44.734Z,1009.93
2022-08-27T02:13:44.726Z,1009.90
2022-08-27T02:14:44.711Z,1009.89
2022-08-27T02:15:44.722Z,1009.86
2022-08-27T02:17:41.376Z,1009.83
2022-08-27T02:18:41.784Z,1009.81
2022-08-27T02:19:41.289Z,1009.91
2022-08-27T02:20:41.272Z,1009.86
2022-08-27T02:21:41.346Z,1009.81
2022-08-27T02:22:41.244Z,1009.80
2022-08-27T02:23:41.283Z,1009.82
2022-08-27T02:24:41.259Z,1009.76
2022-08-27T02:25:41.294Z,1009.79
2022-08-27T02:26:41.213Z,1009.75
2022-08-27T02:27:41.167Z,1009.74
2022-08-27T02:28:41.178Z,1009.77
2022-08-27T02:29:41.150Z,1009.78
2022-08-27T02:30:41.131Z,1009.73
2022-08-27T02:31:41.177Z,1009.74
2022-08-27T02:32:41.122Z,1009.81
2022-08-27T02:33:41.101Z,1009.76
2022-08-27T02:34:41.093Z,1009.80
2022-08-27T02:35:41.075Z,1009.79
2022-08-27T02:36:41.092Z,1009.75
2022-08-27T02:37:41.070Z,1009.76
2022-08-27T02:38:41.041Z,1009.79
2022-08-27T02:39:45.508Z,1009.71
2022-08-27T02:40:42.024Z,1009.72
2022-08-27T02:41:41.006Z,1009.72
2022-08-27T02:42:41.031Z,1009.77
2022-08-27T02:43:40.995Z,1009.75
2022-08-27T02:44:40.982Z,1009.80
2022-08-27T02:45:40.959Z,1009.75
2022-08-27T02:46:41.064Z,1009.76
2022-08-27T02:47:40.955Z,1009.81
2022-08-27T02:48:40.938Z,1009.77
2022-08-27T02:49:40.916Z,1009.81
2022-08-27T02:50:40.908Z,1009.80
2022-08-27T02:51:40.892Z,1009.78
2022-08-27T02:52:40.905Z,1009.72
2022-08-27T02:53:40.911Z,1009.75
2022-08-27T02:54:40.899Z,1009.77
2022-08-27T02:55:40.854Z,1009.71
2022-08-27T02:56:40.840Z,1009.73
2022-08-27T02:57:40.843Z,1009.76
2022-08-27T02:58:40.822Z,1009.74
2022-08-27T02:59:40.816Z,1009.71
2022-08-27T03:00:40.815Z,1009.70
2022-08-27T03:01:40.919Z,1009.68
2022-08-27T03:02:40.828Z,1009.67
2022-08-27T03:03:40.760Z,1009.64
2022-08-27T03:04:40.775Z,1009.68
2022-08-27T03:05:40.754Z,1009.68
2022-08-27T03:06:40.737Z,1009.68
2022-08-27T03:07:40.709Z,1009.66
2022-08-27T03:08:52.594Z,1009.64
2022-08-27T03:09:41.723Z,1009.65
2022-08-27T03:10:40.684Z,1009.69
2022-08-27T03:11:40.669Z,1009.67
2022-08-27T03:12:40.667Z,1009.63
2022-08-27T03:13:40.647Z,1009.63
2022-08-27T03:14:40.641Z,1009.63
2022-08-27T03:15:40.751Z,1009.61
2022-08-27T03:16:40.622Z,1009.66
2022-08-27T03:17:40.777Z,1009.64
2022-08-27T03:18:40.613Z,1009.64
2022-08-27T03:19:40.582Z,1009.69
2022-08-27T03:20:40.586Z,1009.70
2022-08-27T03:21:40.571Z,1009.68
2022-08-27T03:22:40.554Z,1009.69
2022-08-27T03:23:40.561Z,1009.69
2022-08-27T03:24:40.567Z,1009.72
2022-08-27T03:25:40.520Z,1009.68
2022-08-27T03:26:40.503Z,1009.71
2022-08-27T03:27:40.495Z,1009.68
2022-08-27T03:28:40.510Z,1009.63
2022-08-27T03:29:40.466Z,1009.66
2022-08-27T03:30:41.157Z,1009.62
2022-08-27T03:31:40.505Z,1009.60
2022-08-27T03:32:40.439Z,1009.70
2022-08-27T03:33:40.435Z,1009.67
2022-08-27T03:34:40.418Z,1009.71
2022-08-27T03:35:40.395Z,1009.68
2022-08-27T03:36:40.402Z,1009.69
2022-08-27T03:37:40.379Z,1009.69
2022-08-27T03:38:40.370Z,1009.69
2022-08-27T03:39:40.394Z,1009.66
2022-08-27T03:40:40.341Z,1009.68
2022-08-27T03:41:54.182Z,1009.65
2022-08-27T03:42:41.333Z,1009.71
2022-08-27T03:43:40.308Z,1009.68
2022-08-27T03:44:40.305Z,1009.66
2022-08-27T03:45:48.430Z,1009.66
2022-08-27T03:46:41.461Z,1009.71
2022-08-27T03:47:40.264Z,1009.70
2022-08-27T03:48:40.255Z,1009.73
2022-08-27T03:49:40.237Z,1009.71
2022-08-27T03:50:40.251Z,1009.73
2022-08-27T03:51:40.218Z,1009.77
2022-08-27T03:52:40.231Z,1009.79
2022-08-27T03:53:40.199Z,1009.84
2022-08-27T03:54:40.207Z,1009.80
2022-08-27T03:55:40.173Z,1009.84
2022-08-27T03:56:40.171Z,1009.85
2022-08-27T03:57:40.184Z,1009.87
2022-08-27T03:58:40.158Z,1009.80
2022-08-27T03:59:40.129Z,1009.83
2022-08-27T04:00:40.116Z,1009.84
2022-08-27T04:01:40.208Z,1009.79
2022-08-27T04:02:40.193Z,1009.82
2022-08-27T04:03:40.121Z,1009.86
2022-08-27T04:04:40.076Z,1009.90
2022-08-27T04:05:40.066Z,1009.85
2022-08-27T04:06:40.054Z,1009.89
2022-08-27T04:07:40.044Z,1009.85
2022-08-27T04:08:40.030Z,1009.87
2022-08-27T04:09:40.072Z,1009.93
2022-08-27T04:10:40.010Z,1009.84
2022-08-27T04:11:39.999Z,1009.94
2022-08-27T04:12:39.987Z,1009.90
2022-08-27T04:13:39.975Z,1009.94
2022-08-27T04:14:39.985Z,1009.92
2022-08-27T04:15:40.821Z,1009.91
2022-08-27T04:16:39.939Z,1009.92
2022-08-27T04:17:39.923Z,1009.93
2022-08-27T04:18:39.921Z,1009.90
2022-08-27T04:19:39.900Z,1009.87
2022-08-27T04:20:39.916Z,1009.92
2022-08-27T04:21:39.898Z,1009.90
2022-08-27T04:22:39.875Z,1009.94
2022-08-27T04:23:39.861Z,1009.94
2022-08-27T04:24:39.864Z,1009.91
2022-08-27T04:25:39.835Z,1009.89
2022-08-27T04:26:39.826Z,1009.92
2022-08-27T04:27:39.823Z,1009.94
2022-08-27T04:28:39.811Z,1009.97
2022-08-27T04:29:39.867Z,1009.95
2022-08-27T04:30:39.787Z,1009.92
2022-08-27T04:31:39.827Z,1009.91
2022-08-27T04:32:39.760Z,1009.86
2022-08-27T04:33:39.766Z,1009.86
2022-08-27T04:34:39.752Z,1009.90
2022-08-27T04:35:39.725Z,1009.88
2022-08-27T04:36:39.718Z,1009.93
2022-08-27T04:37:39.702Z,1009.84
2022-08-27T04:38:39.692Z,1009.95
2022-08-27T04:39:39.709Z,1009.91
2022-08-27T04:40:39.672Z,1009.98
2022-08-27T04:41:39.660Z,1009.89
2022-08-27T04:42:39.657Z,1009.94
2022-08-27T04:43:39.631Z,1010.00
2022-08-27T04:44:39.639Z,1009.95
2022-08-27T04:45:39.637Z,1009.93
2022-08-27T04:46:39.684Z,1009.97
2022-08-27T04:47:39.588Z,1009.92
2022-08-27T04:48:39.583Z,1009.96
2022-08-27T04:49:39.590Z,1009.97
2022-08-27T04:50:39.559Z,1009.95
2022-08-27T04:51:39.926Z,1009.96
2022-08-27T04:52:41.135Z,1009.95
2022-08-27T04:53:39.524Z,1009.99
2022-08-27T04:54:39.510Z,1010.02
2022-08-27T04:55:39.495Z,1009.99
2022-08-27T04:56:39.511Z,1009.97
2022-08-27T04:57:39.479Z,1010.02
2022-08-27T04:58:39.467Z,1010.05
2022-08-27T04:59:39.489Z,1010.02
2022-08-27T05:00:39.448Z,1010.06
2022-08-27T05:01:39.500Z,1010.05
2022-08-27T05:02:39.429Z,1010.03
2022-08-27T05:03:39.415Z,1010.06
2022-08-27T05:04:39.425Z,1010.08
2022-08-27T05:05:41.637Z,1010.08
2022-08-27T05:06:39.409Z,1010.08
2022-08-27T05:07:39.366Z,1010.05
2022-08-27T05:08:39.364Z,1010.04
2022-08-27T05:09:39.342Z,1010.03
2022-08-27T05:10:39.339Z,1010.05
2022-08-27T05:11:39.408Z,1010.09
2022-08-27T05:12:39.315Z,1010.05
2022-08-27T05:13:39.337Z,1010.05
2022-08-27T05:14:39.296Z,1010.04
2022-08-27T05:15:39.318Z,1010.07
2022-08-27T05:16:39.274Z,1010.02
2022-08-27T05:17:39.281Z,1010.05
2022-08-27T05:18:42.274Z,1010.09
2022-08-27T05:19:40.230Z,1010.06
2022-08-27T05:20:39.250Z,1010.07
2022-08-27T05:21:39.223Z,1010.06
2022-08-27T05:22:39.216Z,1010.05
2022-08-27T05:23:39.212Z,1010.13
2022-08-27T05:24:39.183Z,1010.07
2022-08-27T05:25:39.159Z,1010.09
2022-08-27T05:26:39.156Z,1010.08
2022-08-27T05:27:39.165Z,1010.11
2022-08-27T05:28:39.129Z,1010.07
2022-08-27T05:29:39.116Z,1010.08
2022-08-27T05:30:39.126Z,1010.15
2022-08-27T05:31:39.193Z,1010.09
2022-08-27T05:32:39.111Z,1010.06
2022-08-27T05:33:39.082Z,1010.14
2022-08-27T05:34:39.068Z,1010.09
2022-08-27T05:35:39.049Z,1010.11
2022-08-27T05:36:39.040Z,1010.13
2022-08-27T05:37:40.048Z,1010.16
2022-08-27T05:38:39.029Z,1010.14
2022-08-27T05:39:39.012Z,1010.19
2022-08-27T05:40:38.997Z,1010.11
2022-08-27T05:41:38.980Z,1010.11
2022-08-27T05:42:38.971Z,1010.08
2022-08-27T05:43:39.284Z,1010.12
2022-08-27T05:44:41.644Z,1010.12
2022-08-27T05:45:39.032Z,1010.11
2022-08-27T05:46:39.008Z,1010.10
2022-08-27T05:47:44.374Z,1010.12
2022-08-27T05:48:38.960Z,1010.05
2022-08-27T05:49:38.940Z,1010.10
2022-08-27T05:50:38.898Z,1010.07
2022-08-27T05:51:38.899Z,1010.12
2022-08-27T05:52:38.893Z,1010.09
2022-08-27T05:53:38.919Z,1010.08
2022-08-27T05:54:38.866Z,1010.11
2022-08-27T05:55:38.842Z,1010.00
2022-08-27T05:56:38.842Z,1010.14
2022-08-27T05:57:38.837Z,1010.12
2022-08-27T05:58:38.967Z,1009.99
2022-08-27T05:59:39.793Z,1009.99
2022-08-27T06:00:38.772Z,1009.98
2022-08-27T06:01:38.756Z,1010.03
2022-08-27T06:02:38.830Z,1010.00
2022-08-27T06:03:38.737Z,1010.06
2022-08-27T06:04:38.734Z,1010.02
2022-08-27T06:05:38.756Z,1010.06
2022-08-27T06:06:38.702Z,1010.05
2022-08-27T06:07:38.695Z,1010.09
2022-08-27T06:08:38.677Z,1010.05
2022-08-27T06:09:38.785Z,1010.15
2022-08-27T06:10:38.714Z,1010.11
2022-08-27T06:11:38.647Z,1010.12
2022-08-27T06:12:38.649Z,1010.14
2022-08-27T06:13:38.627Z,1010.16
2022-08-27T06:14:38.707Z,1010.12
2022-08-27T06:15:38.703Z,1010.15
2022-08-27T06:16:38.615Z,1010.18
2022-08-27T06:17:38.648Z,1010.18
2022-08-27T06:18:39.583Z,1010.15
2022-08-27T06:19:38.584Z,1010.22
2022-08-27T06:20:38.567Z,1010.18
2022-08-27T06:21:38.535Z,1010.17
2022-08-27T06:22:38.521Z,1010.21
2022-08-27T06:23:38.523Z,1010.18
2022-08-27T06:24:38.505Z,1010.18
2022-08-27T06:25:38.524Z,1010.16
2022-08-27T06:26:38.477Z,1010.19
2022-08-27T06:27:38.465Z,1010.22
2022-08-27T06:28:38.471Z,1010.23
2022-08-27T06:29:38.446Z,1010.24
2022-08-27T06:30:38.493Z,1010.17
2022-08-27T06:31:38.765Z,1010.26
2022-08-27T06:32:38.412Z,1010.19
2022-08-27T06:33:38.411Z,1010.22
2022-08-27T06:34:38.385Z,1010.21
2022-08-27T06:35:38.399Z,1010.23
2022-08-27T06:36:38.376Z,1010.21
2022-08-27T06:37:38.355Z,1010.26
2022-08-27T06:38:38.339Z,1010.24
2022-08-27T06:39:38.345Z,1010.28
2022-08-27T06:40:38.393Z,1010.25
2022-08-27T06:41:38.334Z,1010.27
2022-08-27T06:42:38.295Z,1010.23
2022-08-27T06:43:38.286Z,1010.25
2022-08-27T06:44:38.286Z,1010.33
2022-08-27T06:45:38.264Z,1010.29
2022-08-27T06:46:38.329Z,1010.29
2022-08-27T06:47:38.252Z,1010.30
2022-08-27T06:48:38.228Z,1010.28
2022-08-27T06:49:38.223Z,1010.28
2022-08-27T06:50:38.220Z,1010.29
2022-08-27T06:51:38.219Z,1010.25
2022-08-27T06:52:38.182Z,1010.30
2022-08-27T06:53:38.190Z,1010.35
2022-08-27T06:54:38.159Z,1010.33
2022-08-27T06:55:38.155Z,1010.38
2022-08-27T06:56:38.142Z,1010.37
2022-08-27T06:57:38.130Z,1010.27
2022-08-27T06:58:38.127Z,1010.35
2022-08-27T06:59:39.929Z,1010.32
2022-08-27T07:00:38.124Z,1010.38
2022-08-27T07:01:38.125Z,1010.28
2022-08-27T07:02:38.134Z,1010.37
2022-08-27T07:03:38.074Z,1010.35
2022-08-27T07:04:38.048Z,1010.34
2022-08-27T07:05:38.045Z,1010.31
2022-08-27T07:06:38.028Z,1010.34
2022-08-27T07:07:43.245Z,1010.32
2022-08-27T07:08:39.023Z,1010.32
2022-08-27T07:09:37.996Z,1010.27
2022-08-27T07:10:37.982Z,1010.34
2022-08-27T07:11:37.976Z,1010.27
2022-08-27T07:12:37.962Z,1010.34
2022-08-27T07:13:37.975Z,1010.35
2022-08-27T07:14:38.486Z,1010.32
2022-08-27T07:15:37.957Z,1010.35
2022-08-27T07:16:40.839Z,1010.36
2022-08-27T07:17:37.905Z,1010.32
2022-08-27T07:18:37.924Z,1010.37
2022-08-27T07:19:40.884Z,1010.43
2022-08-27T07:20:37.869Z,1010.39
2022-08-27T07:21:37.863Z,1010.43
2022-08-27T07:22:37.845Z,1010.46
2022-08-27T07:23:37.860Z,1010.45
2022-08-27T07:24:37.833Z,1010.45
2022-08-27T07:25:37.814Z,1010.40
2022-08-27T07:26:37.801Z,1010.41
2022-08-27T07:27:37.796Z,1010.40
2022-08-27T07:28:37.777Z,1010.40
2022-08-27T07:29:37.784Z,1010.39
2022-08-27T07:30:37.834Z,1010.47
2022-08-27T07:31:37.752Z,1010.47
2022-08-27T07:32:37.731Z,1010.48
2022-08-27T07:33:37.726Z,1010.45
2022-08-27T07:34:37.721Z,1010.44
2022-08-27T07:35:37.721Z,1010.48
2022-08-27T07:36:37.688Z,1010.46
2022-08-27T07:37:37.678Z,1010.43
2022-08-27T07:38:37.665Z,1010.51
2022-08-27T07:39:37.667Z,1010.44
2022-08-27T07:40:37.737Z,1010.48
2022-08-27T07:41:37.635Z,1010.44
2022-08-27T07:42:37.621Z,1010.50
2022-08-27T07:43:37.614Z,1010.44
2022-08-27T07:44:37.602Z,1010.50
2022-08-27T07:45:37.668Z,1010.55
2022-08-27T07:46:40.100Z,1010.48
2022-08-27T07:47:37.567Z,1010.57
2022-08-27T07:48:37.874Z,1010.58
2022-08-27T07:49:37.546Z,1010.58
2022-08-27T07:50:37.548Z,1010.61
2022-08-27T07:51:37.541Z,1010.57
2022-08-27T07:52:37.516Z,1010.65
2022-08-27T07:53:37.505Z,1010.60
2022-08-27T07:54:37.486Z,1010.56
2022-08-27T07:55:37.476Z,1010.61
2022-08-27T07:56:37.501Z,1010.64
2022-08-27T07:57:37.475Z,1010.69
2022-08-27T07:58:37.441Z,1010.67
2022-08-27T07:59:37.437Z,1010.67
2022-08-27T08:00:37.419Z,1010.66
2022-08-27T08:01:37.485Z,1010.71
2022-08-27T08:02:37.426Z,1010.70
2022-08-27T08:03:37.390Z,1010.72
2022-08-27T08:04:37.374Z,1010.72
2022-08-27T08:05:37.372Z,1010.66
2022-08-27T08:06:37.354Z,1010.75
2022-08-27T08:07:37.354Z,1010.75
2022-08-27T08:08:37.346Z,1010.70
2022-08-27T08:09:37.323Z,1010.73
2022-08-27T08:10:37.306Z,1010.79
2022-08-27T08:11:37.299Z,1010.73
2022-08-27T08:12:37.301Z,1010.75
2022-08-27T08:13:37.277Z,1010.76
2022-08-27T08:14:38.206Z,1010.75
2022-08-27T08:15:37.260Z,1010.77
2022-08-27T08:16:37.272Z,1010.81
2022-08-27T08:56:05.463Z,1010.71
2022-08-27T09:05:30.318Z,1010.71
2022-08-27T09:13:48.825Z,1010.87
2022-08-27T09:54:04.984Z,1010.73
2022-08-27T10:25:15.034Z,1010.69
2022-08-27T11:15:33.807Z,1010.76
2022-08-27T15:36:21.139Z,1010.59
2022-08-27T15:37:39.172Z,1010.58
2022-08-27T15:44:43.524Z,1010.63
2022-08-27T15:45:43.479Z,1010.59
2022-08-27T15:46:43.530Z,1010.61
2022-08-27T15:47:43.456Z,1010.60
2022-08-27T15:49:07.163Z,1010.59
2022-08-27T15:49:47.306Z,1010.59
2022-08-27T15:50:49.273Z,1010.66
2022-08-27T15:51:46.853Z,1010.60
2022-08-27T15:52:45.962Z,1010.60
2022-08-27T15:53:44.713Z,1010.57
2022-08-27T20:32:47.901Z,1012.01
2022-08-27T20:37:19.126Z,1012.12
